LTAJ Airport Information

Runway Information
Runway 10L Length 9843 ft width 157 ft
Elevation 2315 ft Threshold 427 ft Heading 105
Runway 28R Length 9843 ft Width 157 ft
Elevation 2190 ft Threshold 0 ft Heading 285
Runway 10R Length 9842 ft width 100 ft
Elevation 2309 ft Threshold 328 ft Heading 105
Runway 28L Length 9842 ft Width 100 ft
Elevation 2215 ft Threshold 0 ft Heading 285
Airport Frequencies
Type APP Name APP Frequency 120.1 MHZ
Type ATIS Name Frequency 119.275 MHZ
Type TWR Name TWR Frequency 120.1 MHZ
Airport Navaids
Type VOR-DME Name Gaziantep Frequency 116700 KHZ
Type NDB Name Oguzeli Frequency 432 KHZ
Airport Weather Information & NOTAM
ADDS - METARS form results

(2033 UTC 20 July 2019)
Data provider http://aviationweather.gov/metar/data/
 
METAR text: LTAJ 202020Z 25004KT CAVOK 26/12 Q1008 NOSIG RMK RWY10 26006KT 220V290
Conditions at: LTAJ (GAZIANTEP , TR) observed 2020 UTC 20 July 2019
Temperature: 26.0°C (79°F)
Dewpoint: 12.0°C (54°F) [RH = 42%]
Pressure (altimeter): 29.76 inches Hg (1008.0 mb)
Winds: from the WSW (250 degrees) at 5 MPH (4 knots; 2.1 m/s)
Visibility: 6 or more miles (10+ km)
Ceiling: ceiling and visibility are OK
Clouds: unknown
Weather: no significant weather observed at this time

METAR text: LTAJ 201950Z 28006KT CAVOK 27/12 Q1008 NOSIG RMK RWY10 24005KT 160V290
Conditions at: LTAJ (GAZIANTEP , TR) observed 1950 UTC 20 July 2019
Temperature: 27.0°C (81°F)
Dewpoint: 12.0°C (54°F) [RH = 39%]
Pressure (altimeter): 29.76 inches Hg (1008.0 mb)
Winds: from the W (280 degrees) at 7 MPH (6 knots; 3.1 m/s)
Visibility: 6 or more miles (10+ km)
Ceiling: ceiling and visibility are OK
Clouds: unknown
Weather: no significant weather observed at this time

Forecast for: LTAJ (GAZIANTEP , TR)
Text: TAF LTAJ 201640Z 2018/2118 26010KT CAVOK
Forecast period: 1800 to 2000 UTC 20 July 2019
Forecast type: FROM: standard forecast or significant change
Winds: from the W (260 degrees) at 12 MPH (10 knots; 5.1 m/s)
Visibility: 6 or more miles 10+ km)
Ceiling: unknown
Clouds: missing
Weather: NSW  (no significant weather)
Text: BECMG 2020/2022 32008KT
Forecast period: 2000 UTC 20 July 2019 to 0900 UTC 21 July 2019
Forecast type: BECOMING: Conditions expected to become as follows by 2200 UTC 20 July 2019
Winds: from the NW (320 degrees) at 9 MPH (8 knots; 4.1 m/s)
Visibility: 6 or more miles 10+ km)
Ceiling: unknown
Clouds: missing
Weather: NSW  (no significant weather)
Text: BECMG 2109/2111 26012KT
Forecast period: 0900 to 1800 UTC 21 July 2019
Forecast type: BECOMING: Conditions expected to become as follows by 1100 UTC 21 July 2019
Winds: from the W (260 degrees) at 14 MPH (12 knots; 6.2 m/s)
Visibility: 6 or more miles 10+ km)
Ceiling: unknown
Clouds: missing
Weather: NSW  (no significant weather)